Time;durP1;ratioP1;P1;durP2;ratioP2;P2;SDS_P1;SDS_P2;PMS_P1;PMS_P2;Temp;Humidity;BMP_temperature;BMP_pressure;BME280_temperature;BME280_humidity;BME280_pressure;Samples;Min_cycle;Max_cycle;Signal;HPM_P1;HPM_P2
2022/08/08 00:00:32;;;;;;;7.10;6.40;;;16.40;99.90;;;;;;5056339;28;20370;-83
2022/08/08 00:03:19;;;;;;;7.63;7.03;;;16.40;99.90;;;;;;5055383;28;20029;-83
2022/08/08 00:05:50;;;;;;;8.23;6.38;;;16.40;99.90;;;;;;5038966;28;20059;-83
2022/08/08 00:08:32;;;;;;;8.45;6.63;;;16.30;99.90;;;;;;5056569;28;20025;-82
2022/08/08 00:11:07;;;;;;;7.95;7.25;;;16.30;99.90;;;;;;5038706;28;20025;-83
2022/08/08 00:13:50;;;;;;;8.45;7.05;;;16.20;99.90;;;;;;5056142;28;20021;-83
2022/08/08 00:16:28;;;;;;;10.32;7.30;;;16.20;99.90;;;;;;5038610;28;20025;-82
2022/08/08 00:19:03;;;;;;;7.55;6.88;;;16.10;99.90;;;;;;5038485;28;20030;-82
2022/08/08 00:21:47;;;;;;;7.57;6.97;;;16.10;99.90;;;;;;5038054;28;20108;-83
2022/08/08 00:24:17;;;;;;;8.32;7.53;;;16.10;99.90;;;;;;5054886;28;20025;-83
2022/08/08 00:26:53;;;;;;;9.63;7.03;;;16.00;99.90;;;;;;5037995;28;20078;-83
2022/08/08 00:29:28;;;;;;;7.90;7.15;;;16.00;99.90;;;;;;5055613;28;20092;-84
2022/08/08 00:31:59;;;;;;;9.43;7.03;;;16.00;99.90;;;;;;5054208;28;20041;-84
2022/08/08 00:37:30;;;;;;;8.00;7.30;;;16.00;99.90;;;;;;5055265;28;20094;-84
2022/08/08 00:40:06;;;;;;;8.80;6.93;;;16.00;99.90;;;;;;5037836;28;20025;-83
2022/08/08 00:42:49;;;;;;;9.00;6.80;;;16.00;99.90;;;;;;5037910;28;20032;-83
2022/08/08 00:45:40;;;;;;;7.35;6.75;;;16.10;99.90;;;;;;5037630;28;20021;-84
2022/08/08 00:48:24;;;;;;;7.13;6.43;;;16.10;99.90;;;;;;5037532;28;20528;-84
2022/08/08 00:51:11;;;;;;;7.00;6.40;;;16.10;99.90;;;;;;5055193;28;20029;-84
2022/08/08 00:54:00;;;;;;;8.00;6.30;;;16.10;99.90;;;;;;5055141;28;20043;-84
2022/08/08 00:56:50;;;;;;;7.15;6.55;;;16.10;99.90;;;;;;5037191;28;20052;-84
2022/08/08 00:59:16;;;;;;;7.30;6.57;;;16.10;99.90;;;;;;5037225;28;20033;-83
2022/08/08 01:02:00;;;;;;;6.53;6.03;;;16.10;99.90;;;;;;5037429;28;20159;-84
2022/08/08 01:04:45;;;;;;;7.50;6.38;;;16.10;99.90;;;;;;5036618;28;20028;-84
2022/08/08 01:07:26;;;;;;;8.00;6.57;;;16.10;99.90;;;;;;5037534;28;20120;-84
2022/08/08 01:10:17;;;;;;;7.13;6.50;;;16.10;99.90;;;;;;5054064;28;20028;-83
2022/08/08 01:13:21;;;;;;;9.20;6.38;;;16.10;99.90;;;;;;5019025;28;20037;-84
2022/08/08 01:16:21;;;;;;;7.28;6.03;;;16.10;99.90;;;;;;5028194;28;20037;-84
2022/08/08 01:19:18;;;;;;;7.82;6.13;;;16.10;99.90;;;;;;5037380;28;20387;-84
2022/08/08 01:22:09;;;;;;;8.00;6.40;;;16.10;99.90;;;;;;5037700;28;20095;-84
2022/08/08 01:24:58;;;;;;;7.00;6.40;;;16.10;99.90;;;;;;5036472;28;20071;-84
2022/08/08 01:27:46;;;;;;;;;;;16.10;99.90;;;;;;5030131;28;20115;-84
2022/08/08 01:30:55;;;;;;;6.75;6.22;;;16.10;99.90;;;;;;5054768;28;19905;-83
2022/08/08 01:33:27;;;;;;;6.70;6.10;;;16.10;99.90;;;;;;5036694;28;20081;-84
2022/08/08 01:36:44;;;;;;;7.93;5.82;;;16.10;99.90;;;;;;5054834;28;20097;-84
2022/08/08 01:39:51;;;;;;;7.25;6.47;;;16.00;99.90;;;;;;4977407;28;20038;-85
2022/08/08 01:42:38;;;;;;;7.00;6.32;;;16.00;99.90;;;;;;4993454;28;20023;-85
2022/08/08 01:45:36;;;;;;;8.43;6.20;;;15.90;99.90;;;;;;4993928;28;20034;-85
2022/08/08 01:48:15;;;;;;;7.10;6.40;;;15.90;99.90;;;;;;4975669;28;20506;-85
2022/08/08 01:50:53;;;;;;;7.03;6.43;;;15.80;99.90;;;;;;4993117;28;20037;-85
2022/08/08 01:53:30;;;;;;;7.93;6.43;;;15.80;99.90;;;;;;4993161;28;20030;-84
2022/08/08 01:56:17;;;;;;;6.85;6.13;;;15.80;99.90;;;;;;4993190;28;20046;-85
2022/08/08 01:59:16;;;;;;;6.57;6.07;;;15.80;99.90;;;;;;4993313;28;20030;-85
2022/08/08 02:02:02;;;;;;;7.32;5.90;;;15.80;99.90;;;;;;4993032;28;20038;-85
2022/08/08 02:04:45;;;;;;;7.35;5.80;;;15.90;99.90;;;;;;4993182;28;20038;-86
2022/08/08 02:08:04;;;;;;;9.15;6.75;;;15.80;99.90;;;;;;4976922;28;20069;-86
2022/08/08 02:10:43;;;;;;;7.05;6.35;;;15.80;99.90;;;;;;4973427;28;20078;-86
2022/08/08 02:13:15;;;;;;;;;;;15.80;99.90;;;;;;5037337;28;20017;-86
2022/08/08 02:16:06;;;;;;;11.30;6.22;;;15.80;99.90;;;;;;5054960;28;20003;-86
2022/08/08 02:18:43;;;;;;;6.95;6.35;;;15.70;99.90;;;;;;5041458;28;20099;-86
2022/08/08 02:24:28;;;;;;;8.02;6.95;;;15.70;99.90;;;;;;5058545;28;20397;-85
2022/08/08 02:27:11;;;;;;;8.30;6.63;;;15.60;99.90;;;;;;5058114;28;20033;-85
2022/08/08 02:29:58;;;;;;;7.13;6.40;;;15.60;99.90;;;;;;5040325;28;20021;-85
2022/08/08 02:32:52;;;;;;;7.40;6.70;;;15.60;99.90;;;;;;5040303;28;20548;-85
2022/08/08 02:35:38;;;;;;;7.18;6.47;;;15.50;99.90;;;;;;5057921;28;20116;-85
2022/08/08 02:38:25;;;;;;;7.82;7.03;;;15.50;99.90;;;;;;5019549;28;20132;-85
2022/08/08 02:41:26;;;;;;;7.18;6.35;;;15.40;99.90;;;;;;5057906;28;20025;-85
2022/08/08 02:43:58;;;;;;;7.50;6.80;;;15.40;99.90;;;;;;5054904;28;20040;-84
2022/08/08 02:46:42;;;;;;;7.78;7.07;;;15.30;99.90;;;;;;5040044;28;20044;-84
2022/08/08 02:49:45;;;;;;;7.75;7.05;;;15.30;99.90;;;;;;5040087;28;20032;-85
2022/08/08 02:52:56;;;;;;;7.05;6.45;;;15.20;99.90;;;;;;5057625;28;20540;-84
2022/08/08 02:55:43;;;;;;;7.15;6.55;;;15.20;99.90;;;;;;5024383;28;20033;-85
2022/08/08 02:58:30;;;;;;;7.88;7.18;;;15.10;99.90;;;;;;5039712;28;20029;-85
2022/08/08 03:01:17;;;;;;;7.60;6.90;;;15.00;99.90;;;;;;5057419;28;20360;-85
2022/08/08 03:04:05;;;;;;;9.80;8.55;;;15.00;99.90;;;;;;5039800;28;20027;-86
2022/08/08 03:07:14;;;;;;;9.43;8.45;;;15.00;99.90;;;;;;5057391;28;20078;-86
2022/08/08 03:10:08;;;;;;;10.63;8.05;;;14.90;99.90;;;;;;5039729;28;20021;-86
2022/08/08 03:12:37;;;;;;;8.55;7.75;;;14.90;99.90;;;;;;5038400;28;20394;-84
2022/08/08 03:15:25;;;;;;;8.67;7.77;;;14.90;99.90;;;;;;5039401;28;20052;-84
2022/08/08 03:18:08;;;;;;;8.75;7.97;;;14.90;99.90;;;;;;5056826;28;20279;-85
2022/08/08 03:20:51;;;;;;;9.77;8.27;;;14.80;99.90;;;;;;5024076;28;20033;-84
2022/08/08 03:23:17;;;;;;;11.27;7.63;;;14.90;99.90;;;;;;5057296;28;20487;-85
2022/08/08 03:25:44;;;;;;;9.70;8.82;;;14.80;99.90;;;;;;5057053;28;20031;-85
2022/08/08 03:28:31;;;;;;;9.40;8.52;;;14.90;99.90;;;;;;5056205;28;20044;-84
2022/08/08 03:30:57;;;;;;;11.15;8.77;;;14.80;99.90;;;;;;5057100;28;20021;-84
2022/08/08 03:33:24;;;;;;;9.38;8.35;;;14.80;99.90;;;;;;5056375;28;20103;-84
2022/08/08 03:35:50;;;;;;;9.48;8.07;;;14.70;99.90;;;;;;5055599;28;20036;-84
2022/08/08 03:38:20;;;;;;;9.25;8.35;;;14.70;99.90;;;;;;5056787;28;20466;-84
2022/08/08 03:40:54;;;;;;;8.95;8.05;;;14.70;99.90;;;;;;5038652;28;20029;-84
2022/08/08 03:43:20;;;;;;;8.18;7.38;;;14.70;99.90;;;;;;5039255;28;20032;-84
2022/08/08 03:45:46;;;;;;;8.00;7.30;;;14.70;99.90;;;;;;5056679;28;20370;-84
2022/08/08 03:48:12;;;;;;;8.32;7.53;;;14.70;99.90;;;;;;5056580;28;20025;-83
2022/08/08 03:50:46;;;;;;;8.95;7.10;;;14.70;99.90;;;;;;5038753;28;20025;-84
2022/08/08 03:53:15;;;;;;;8.30;7.38;;;14.70;99.90;;;;;;5039200;28;20025;-83
2022/08/08 03:55:44;;;;;;;7.97;7.15;;;14.80;99.90;;;;;;5038795;28;20029;-85
2022/08/08 03:58:16;;;;;;;8.02;7.32;;;14.70;99.90;;;;;;5056138;28;20443;-83
2022/08/08 04:00:56;;;;;;;9.13;7.53;;;14.80;99.90;;;;;;5038754;28;20102;-85
2022/08/08 04:03:23;;;;;;;7.95;7.15;;;14.70;99.90;;;;;;5056296;28;20022;-84
2022/08/08 04:05:49;;;;;;;8.38;7.45;;;14.80;99.90;;;;;;5038522;28;20052;-84
2022/08/08 04:08:22;;;;;;;8.93;7.40;;;14.80;99.90;;;;;;5056037;28;20029;-83
2022/08/08 04:10:51;;;;;;;8.05;7.35;;;14.80;99.90;;;;;;5038133;28;20021;-84
2022/08/08 04:13:21;;;;;;;7.38;6.68;;;14.80;99.90;;;;;;5056426;28;20029;-84
2022/08/08 04:15:47;;;;;;;8.70;6.68;;;14.80;99.90;;;;;;5056258;28;20036;-84
2022/08/08 04:18:13;;;;;;;8.45;7.38;;;14.80;99.90;;;;;;5038561;28;20039;-82
2022/08/08 04:20:38;;;;;;;8.05;6.95;;;14.80;99.90;;;;;;5055121;28;20420;-83
2022/08/08 04:23:05;;;;;;;7.75;6.97;;;14.90;99.90;;;;;;5038212;28;20533;-83
2022/08/08 04:25:31;;;;;;;7.82;6.55;;;14.90;99.90;;;;;;5055739;28;20108;-82
2022/08/08 04:27:57;;;;;;;8.35;6.63;;;14.90;99.90;;;;;;5038121;28;20093;-81
2022/08/08 04:30:23;;;;;;;8.73;6.40;;;14.90;99.90;;;;;;5037916;28;20026;-82
2022/08/08 04:32:48;;;;;;;7.53;6.65;;;14.90;99.90;;;;;;5037492;28;20045;-81
2022/08/08 04:35:14;;;;;;;7.40;6.75;;;15.00;99.90;;;;;;5055421;28;20044;-82
2022/08/08 04:37:40;;;;;;;6.50;5.82;;;15.00;99.90;;;;;;5055517;28;20609;-83
2022/08/08 04:40:06;;;;;;;7.60;6.45;;;15.10;99.90;;;;;;5053366;28;20452;-82
2022/08/08 04:42:32;;;;;;;6.28;5.68;;;15.20;99.90;;;;;;5055259;28;20017;-82
2022/08/08 04:45:01;;;;;;;7.72;5.93;;;15.20;99.90;;;;;;5054040;28;20036;-81
2022/08/08 04:47:27;;;;;;;;;;;15.30;99.90;;;;;;5038268;28;20033;-82
2022/08/08 04:49:53;;;;;;;6.20;5.70;;;15.30;99.90;;;;;;5037252;28;20365;-82
2022/08/08 04:52:19;;;;;;;5.60;5.13;;;15.40;99.90;;;;;;5053692;28;20021;-80
2022/08/08 04:54:44;;;;;;;5.47;4.93;;;15.50;99.90;;;;;;5036682;28;20497;-79
2022/08/08 04:57:10;;;;;;;7.10;4.93;;;15.60;99.90;;;;;;5037427;28;20032;-79
2022/08/08 04:59:37;;;;;;;10.20;5.18;;;15.60;99.90;;;;;;5054739;28;20111;-81
2022/08/08 05:02:03;;;;;;;6.82;4.90;;;15.60;99.90;;;;;;5054667;28;20032;-80
2022/08/08 05:04:28;;;;;;;5.35;4.85;;;15.70;99.90;;;;;;5036627;28;20021;-82
2022/08/08 05:06:54;;;;;;;7.22;5.15;;;15.70;99.90;;;;;;5054618;28;20024;-81
2022/08/08 05:09:20;;;;;;;5.47;4.97;;;15.70;99.90;;;;;;5054857;28;20029;-82
2022/08/08 05:11:45;;;;;;;5.70;5.20;;;15.80;99.90;;;;;;5054040;28;20032;-63
2022/08/08 05:14:11;;;;;;;8.65;5.40;;;15.90;99.90;;;;;;5054005;28;20521;-64
2022/08/08 05:16:37;;;;;;;5.03;4.60;;;16.00;99.90;;;;;;5053770;28;20486;-63
2022/08/08 05:19:03;;;;;;;4.28;3.97;;;16.10;99.90;;;;;;5035987;28;20056;-63
2022/08/08 05:21:28;;;;;;;4.88;4.25;;;16.10;99.90;;;;;;5053616;28;20032;-63
2022/08/08 05:23:54;;;;;;;5.63;4.28;;;16.20;99.90;;;;;;5035956;28;20374;-63
2022/08/08 05:26:22;;;;;;;4.15;3.75;;;16.40;99.90;;;;;;5053649;28;20064;-62
2022/08/08 05:28:48;;;;;;;4.03;3.60;;;16.50;99.90;;;;;;5053779;28;20079;-78
2022/08/08 05:31:14;;;;;;;9.85;3.30;;;16.60;99.90;;;;;;5036350;28;20029;-81
2022/08/08 05:33:40;;;;;;;6.43;3.33;;;16.70;99.90;;;;;;5037199;28;20056;-82
2022/08/08 05:36:10;;;;;;;4.28;2.88;;;16.80;99.90;;;;;;5037370;28;20124;-82
2022/08/08 05:38:43;;;;;;;3.58;3.20;;;16.90;99.90;;;;;;5054319;28;20021;-75
2022/08/08 05:41:11;;;;;;;5.63;3.30;;;17.00;99.90;;;;;;5053908;28;20458;-79
2022/08/08 05:43:38;;;;;;;7.78;4.25;;;17.10;99.90;;;;;;5053527;28;20469;-63
2022/08/08 05:46:06;;;;;;;6.07;3.83;;;17.10;99.90;;;;;;5053675;28;20028;-61
2022/08/08 05:48:32;;;;;;;5.35;3.38;;;17.30;99.90;;;;;;5053479;28;20076;-64
2022/08/08 05:50:58;;;;;;;3.83;3.53;;;17.40;99.90;;;;;;5052831;28;20131;-62
2022/08/08 05:53:26;;;;;;;5.90;3.03;;;17.50;99.90;;;;;;5053281;28;20053;-61
2022/08/08 05:55:58;;;;;;;4.95;3.13;;;17.60;99.90;;;;;;5053512;28;20032;-61
2022/08/08 05:58:31;;;;;;;3.67;2.70;;;17.60;99.90;;;;;;5053710;28;20037;-60
2022/08/08 06:00:59;;;;;;;11.38;2.90;;;17.80;99.90;;;;;;5064812;28;20037;-61
2022/08/08 06:03:28;;;;;;;7.32;2.47;;;17.90;99.90;;;;;;5073666;28;20052;-61
2022/08/08 06:05:58;;;;;;;6.22;2.67;;;18.00;99.90;;;;;;5073127;28;20052;-61
2022/08/08 06:08:36;;;;;;;5.05;2.20;;;18.10;99.90;;;;;;5073402;28;20029;-61
2022/08/08 06:11:03;;;;;;;7.25;2.53;;;18.20;99.90;;;;;;5073658;28;20078;-61
2022/08/08 06:13:29;;;;;;;5.30;2.55;;;18.20;99.90;;;;;;5073391;28;20033;-61
2022/08/08 06:15:56;;;;;;;9.77;2.50;;;18.20;99.90;;;;;;5055334;28;20355;-61
2022/08/08 06:18:26;;;;;;;3.17;1.95;;;18.30;99.90;;;;;;5073530;28;20450;-61
2022/08/08 06:20:55;;;;;;;2.88;1.90;;;18.40;99.90;;;;;;5073266;28;20024;-61
2022/08/08 06:23:21;;;;;;;3.97;2.10;;;18.50;99.90;;;;;;5073232;28;20028;-61
2022/08/08 06:25:55;;;;;;;4.30;2.40;;;18.60;99.90;;;;;;5055201;28;20033;-61
2022/08/08 06:28:53;;;;;;;5.28;2.10;;;18.60;99.90;;;;;;5073384;28;20028;-60
2022/08/08 06:31:21;;;;;;;3.08;1.77;;;18.70;99.90;;;;;;5048971;28;20039;-61
2022/08/08 06:34:07;;;;;;;2.13;1.60;;;18.80;99.90;;;;;;5073320;28;20460;-62
2022/08/08 06:36:41;;;;;;;4.47;1.80;;;18.80;99.90;;;;;;5074833;28;20028;-62
2022/08/08 06:39:11;;;;;;;2.42;1.75;;;18.80;99.90;;;;;;5074568;28;20032;-62
2022/08/08 06:42:03;;;;;;;3.92;1.50;;;18.90;99.90;;;;;;5073825;28;20477;-80
2022/08/08 06:44:30;;;;;;;4.72;1.52;;;18.90;99.90;;;;;;5052347;28;20036;-77
2022/08/08 06:46:58;;;;;;;7.28;2.25;;;18.90;99.90;;;;;;5055187;28;20032;-77
2022/08/08 06:49:25;;;;;;;4.80;1.23;;;18.90;99.90;;;;;;5073516;28;20031;-78
2022/08/08 06:51:52;;;;;;;3.60;1.23;;;19.00;99.90;;;;;;5055668;28;20454;-78
2022/08/08 06:54:18;;;;;;;2.22;1.30;;;18.90;99.90;;;;;;5055118;28;20078;-78
2022/08/08 06:56:44;;;;;;;5.93;1.65;;;19.00;99.90;;;;;;5054911;28;20043;-78
2022/08/08 06:59:10;;;;;;;1.55;1.40;;;19.10;99.90;;;;;;5055051;28;20033;-78
2022/08/08 07:01:56;;;;;;;2.28;1.33;;;19.10;99.90;;;;;;5073115;28;20353;-79
2022/08/08 07:04:41;;;;;;;3.75;1.40;;;19.10;99.90;;;;;;5057745;28;20055;-78
2022/08/08 07:07:09;;;;;;;3.80;1.45;;;19.10;99.90;;;;;;5077090;28;20036;-78
2022/08/08 07:09:46;;;;;;;4.15;1.40;;;19.10;99.90;;;;;;5058420;28;20028;-78
2022/08/08 07:12:23;;;;;;;7.78;1.40;;;19.10;99.90;;;;;;5058804;28;20170;-77
2022/08/08 07:14:59;;;;;;;1.10;1.10;;;19.10;99.90;;;;;;5076156;28;20493;-78
2022/08/08 07:17:31;;;;;;;1.65;1.20;;;19.10;99.90;;;;;;5076358;28;20020;-78
2022/08/08 07:20:06;;;;;;;1.75;1.27;;;19.20;99.90;;;;;;5076330;28;20029;-78
2022/08/08 07:23:01;;;;;;;3.83;1.35;;;19.20;99.90;;;;;;5058706;28;20025;-78
2022/08/08 07:25:30;;;;;;;2.65;1.38;;;19.10;99.90;;;;;;5052283;28;20401;-78
2022/08/08 07:28:11;;;;;;;1.75;1.40;;;19.10;99.90;;;;;;5058218;28;20035;-78
2022/08/08 07:30:38;;;;;;;3.78;1.33;;;19.10;99.90;;;;;;5076425;28;20024;-78
2022/08/08 07:38:19;;;;;;;2.13;1.17;;;18.90;99.90;;;;;;5255979;23;20114;-76
2022/08/08 07:40:47;;;;;;;2.28;1.40;;;18.90;99.90;;;;;;5055916;28;20039;-76
2022/08/08 07:43:13;;;;;;;2.42;1.60;;;18.90;99.90;;;;;;5037781;28;20462;-76
2022/08/08 07:45:41;;;;;;;3.83;1.83;;;18.90;99.90;;;;;;5055910;28;20025;-76
2022/08/08 07:48:07;;;;;;;7.22;2.28;;;18.90;99.90;;;;;;5038005;28;20033;-76
2022/08/08 07:50:36;;;;;;;3.70;1.20;;;18.90;99.90;;;;;;5037804;28;20090;-76
2022/08/08 07:53:28;;;;;;;3.08;1.30;;;18.90;99.90;;;;;;5038324;28;20083;-76
2022/08/08 07:55:58;;;;;;;2.90;1.25;;;18.90;99.90;;;;;;5037754;28;20470;-76
2022/08/08 07:58:31;;;;;;;2.38;1.17;;;18.90;99.90;;;;;;5055407;28;20116;-76
2022/08/08 08:01:14;;;;;;;1.70;1.30;;;19.00;99.90;;;;;;5037293;28;20123;-76
2022/08/08 08:03:46;;;;;;;3.55;1.33;;;18.90;99.90;;;;;;5037525;28;20075;-76
2022/08/08 08:06:13;;;;;;;1.30;1.13;;;19.00;99.90;;;;;;5055304;28;20028;-76
2022/08/08 08:08:46;;;;;;;1.35;1.20;;;18.90;99.90;;;;;;5037932;28;20123;-76
2022/08/08 08:11:14;;;;;;;2.45;1.17;;;18.90;99.90;;;;;;5055766;28;20516;-75
2022/08/08 08:14:05;;;;;;;4.05;1.00;;;19.00;99.90;;;;;;5054868;28;20032;-76
2022/08/08 08:16:37;;;;;;;3.05;1.73;;;18.90;99.90;;;;;;5055020;28;20024;-76
2022/08/08 08:19:08;;;;;;;3.75;1.20;;;19.00;99.90;;;;;;5037153;28;20033;-76
2022/08/08 08:21:45;;;;;;;3.53;1.23;;;18.90;99.90;;;;;;5037169;28;20044;-76
2022/08/08 08:24:11;;;;;;;1.98;1.20;;;18.70;99.90;;;;;;5054989;28;20106;-75
2022/08/08 08:26:37;;;;;;;2.47;1.40;;;18.50;99.90;;;;;;5055016;28;20036;-76
2022/08/08 08:29:04;;;;;;;2.70;1.65;;;18.30;99.90;;;;;;5054941;28;20077;-76
2022/08/08 08:31:30;;;;;;;3.28;1.40;;;18.30;99.90;;;;;;5037241;28;20462;-75
2022/08/08 08:33:56;;;;;;;2.60;1.73;;;18.20;99.90;;;;;;5036816;28;20470;-75
2022/08/08 08:36:23;;;;;;;2.85;1.42;;;18.20;99.90;;;;;;5054492;28;20048;-75
2022/08/08 08:38:49;;;;;;;6.57;1.83;;;18.20;99.90;;;;;;5036227;28;20056;-75
2022/08/08 08:41:17;;;;;;;1.55;1.30;;;18.20;99.90;;;;;;5054434;28;20529;-75
2022/08/08 08:43:45;;;;;;;3.28;1.70;;;18.10;99.90;;;;;;5036720;28;20031;-75
2022/08/08 08:46:12;;;;;;;2.90;1.83;;;18.10;99.90;;;;;;5036659;28;20029;-76
2022/08/08 08:48:40;;;;;;;3.85;2.03;;;18.00;99.90;;;;;;5054462;28;20037;-77
2022/08/08 08:51:12;;;;;;;8.50;2.33;;;17.90;99.90;;;;;;5036868;28;20029;-80
2022/08/08 08:53:47;;;;;;;6.00;2.15;;;17.70;99.90;;;;;;5036809;28;20036;-76
2022/08/08 08:56:13;;;;;;;3.38;2.20;;;17.60;99.90;;;;;;5054352;28;20025;-76
2022/08/08 08:58:44;;;;;;;3.38;2.55;;;17.40;99.90;;;;;;5054185;28;20037;-81
2022/08/08 09:01:11;;;;;;;13.07;3.30;;;17.20;99.90;;;;;;5054443;28;20025;-76
2022/08/08 09:03:41;;;;;;;8.60;4.32;;;17.00;99.90;;;;;;5054170;28;20029;-77
2022/08/08 09:06:10;;;;;;;5.70;3.42;;;16.90;99.90;;;;;;5054506;28;20513;-77
2022/08/08 09:08:41;;;;;;;6.20;3.15;;;16.80;99.90;;;;;;5036246;28;20082;-77
2022/08/08 09:11:07;;;;;;;6.45;4.20;;;16.70;99.90;;;;;;5036178;28;20032;-76
2022/08/08 09:13:35;;;;;;;6.25;4.05;;;16.70;99.90;;;;;;5053928;28;20025;-76
2022/08/08 09:16:02;;;;;;;7.40;4.00;;;16.70;99.90;;;;;;5053997;28;20039;-75
2022/08/08 09:18:29;;;;;;;7.18;4.45;;;16.70;99.90;;;;;;5053852;28;20037;-76
2022/08/08 09:20:57;;;;;;;6.47;4.20;;;16.70;99.90;;;;;;5036299;28;20064;-76
2022/08/08 09:23:24;;;;;;;5.38;4.55;;;16.70;99.90;;;;;;5035940;28;20040;-76
2022/08/08 09:25:58;;;;;;;5.80;4.32;;;16.70;99.90;;;;;;5035324;28;20546;-75
2022/08/08 09:28:28;;;;;;;5.60;4.57;;;16.70;99.90;;;;;;5053610;28;20536;-77
2022/08/08 09:31:00;;;;;;;7.03;4.72;;;16.70;99.90;;;;;;5035875;28;20021;-77
2022/08/08 09:33:29;;;;;;;7.40;5.07;;;16.70;99.90;;;;;;5053798;28;20071;-76
2022/08/08 09:35:54;;;;;;;6.18;4.22;;;16.80;99.90;;;;;;5036435;28;20029;-76
2022/08/08 09:38:29;;;;;;;7.97;4.60;;;16.80;99.90;;;;;;5036068;28;20041;-76
2022/08/08 09:41:00;;;;;;;9.35;5.55;;;16.90;99.90;;;;;;5053607;28;20064;-76
2022/08/08 09:43:29;;;;;;;8.48;4.88;;;16.90;99.90;;;;;;5050305;28;20026;-76
2022/08/08 09:46:00;;;;;;;4.75;3.30;;;16.90;99.90;;;;;;5034301;28;20057;-76
2022/08/08 09:48:30;;;;;;;3.58;3.22;;;16.80;99.90;;;;;;5015897;28;20033;-75
2022/08/08 09:50:57;;;;;;;4.95;3.20;;;16.80;99.90;;;;;;5015975;28;20025;-75
2022/08/08 09:53:41;;;;;;;5.72;3.38;;;16.70;99.90;;;;;;5033633;28;20470;-76
2022/08/08 09:56:09;;;;;;;5.93;4.00;;;16.70;99.90;;;;;;5033986;28;20026;-77
2022/08/08 09:58:47;;;;;;;9.45;4.60;;;16.80;99.90;;;;;;5033548;28;20064;-77
2022/08/08 10:01:19;;;;;;;9.48;4.93;;;16.80;99.90;;;;;;5015833;28;20083;-76
2022/08/08 10:03:49;;;;;;;11.68;7.03;;;16.90;99.90;;;;;;5015844;28;20021;-76
2022/08/08 10:06:18;;;;;;;9.18;5.65;;;17.00;99.90;;;;;;5015773;28;20029;-78
2022/08/08 10:08:45;;;;;;;;;;;17.00;99.90;;;;;;5016277;28;20448;-78
2022/08/08 10:11:11;;;;;;;5.35;4.15;;;17.00;99.90;;;;;;5033930;28;19959;-77
2022/08/08 10:13:37;;;;;;;6.57;5.18;;;17.00;99.90;;;;;;5016115;28;20374;-77
2022/08/08 10:16:03;;;;;;;8.70;5.40;;;17.00;99.90;;;;;;5033133;28;20032;-77
2022/08/08 10:18:34;;;;;;;9.02;7.05;;;17.00;99.90;;;;;;5033306;28;20035;-76
2022/08/08 10:21:09;;;;;;;7.30;6.57;;;17.00;99.90;;;;;;5015563;28;20105;-77
2022/08/08 10:23:43;;;;;;;7.03;5.93;;;17.00;99.90;;;;;;5033368;28;20041;-78
2022/08/08 10:26:24;;;;;;;9.60;6.05;;;16.90;99.90;;;;;;5015530;28;20494;-78
2022/08/08 10:28:53;;;;;;;8.07;6.80;;;16.80;99.90;;;;;;5033405;28;20036;-66
2022/08/08 10:34:12;;;;;;;7.53;6.82;;;16.60;99.90;;;;;;5033355;28;20050;-66
2022/08/08 10:36:41;;;;;;;6.72;6.18;;;16.70;99.90;;;;;;5016796;28;20029;-66
2022/08/08 10:39:07;;;;;;;;;;;16.60;99.90;;;;;;5037505;28;20041;-78
2022/08/08 10:41:37;;;;;;;6.53;5.93;;;16.70;99.90;;;;;;5037010;28;19974;-78
2022/08/08 10:44:04;;;;;;;11.10;7.47;;;16.70;99.90;;;;;;5036933;28;20033;-78
2022/08/08 10:46:30;;;;;;;8.82;8.00;;;16.70;99.90;;;;;;5019272;28;20048;-78
2022/08/08 10:48:57;;;;;;;10.93;8.07;;;16.70;99.90;;;;;;5019014;28;20025;-79
2022/08/08 10:51:27;;;;;;;8.05;7.05;;;16.70;99.90;;;;;;5036836;28;20025;-78
2022/08/08 10:53:54;;;;;;;8.05;7.25;;;16.60;99.90;;;;;;5018994;28;20091;-78
2022/08/08 10:56:23;;;;;;;12.65;8.88;;;16.60;99.90;;;;;;5019682;28;20442;-78
2022/08/08 10:59:08;;;;;;;6.95;6.32;;;16.50;99.90;;;;;;5036666;28;20041;-78
2022/08/08 11:01:36;;;;;;;7.85;7.07;;;16.50;99.90;;;;;;5019328;28;20030;-79
2022/08/08 11:04:06;;;;;;;11.52;6.35;;;16.40;99.90;;;;;;5018834;28;20021;-80
2022/08/08 11:06:34;;;;;;;8.50;6.50;;;16.40;99.90;;;;;;5018910;28;20386;-67
2022/08/08 11:09:05;;;;;;;9.25;7.82;;;16.20;99.90;;;;;;5036728;28;20037;-68
2022/08/08 11:11:42;;;;;;;12.63;7.70;;;16.10;99.90;;;;;;5019198;28;20025;-69
2022/08/08 11:14:10;;;;;;;11.05;7.97;;;16.10;99.90;;;;;;5018694;28;20482;-79
2022/08/08 11:16:39;;;;;;;10.70;7.50;;;16.10;99.90;;;;;;5018471;28;20078;-78
2022/08/08 11:19:05;;;;;;;9.57;8.05;;;16.00;99.90;;;;;;5018494;28;20029;-77
2022/08/08 11:21:39;;;;;;;9.20;8.27;;;15.90;99.90;;;;;;5018606;28;20052;-79
2022/08/08 11:24:07;;;;;;;11.73;9.38;;;15.90;99.90;;;;;;5018684;28;20057;-77
2022/08/08 11:26:35;;;;;;;12.30;10.73;;;16.00;99.90;;;;;;5036172;28;20022;-77
2022/08/08 11:29:03;;;;;;;12.10;9.38;;;16.10;99.90;;;;;;5018758;28;20026;-79
2022/08/08 11:31:36;;;;;;;11.90;8.75;;;16.20;99.90;;;;;;5018393;28;20156;-76
2022/08/08 11:34:03;;;;;;;14.10;9.13;;;16.20;99.90;;;;;;5036367;28;20446;-76
2022/08/08 11:36:32;;;;;;;11.57;10.40;;;16.40;99.90;;;;;;5036004;28;20107;-76
2022/08/08 11:38:58;;;;;;;9.07;8.00;;;16.40;99.90;;;;;;5017768;28;20053;-76
2022/08/08 11:41:26;;;;;;;10.75;7.25;;;16.60;99.90;;;;;;5036122;28;20026;-76
2022/08/08 11:43:53;;;;;;;7.00;5.88;;;16.60;99.90;;;;;;5017827;28;20469;-76
2022/08/08 11:46:22;;;;;;;8.02;5.55;;;16.70;99.90;;;;;;5035823;28;20637;-75
2022/08/08 11:48:49;;;;;;;6.18;5.32;;;16.80;99.90;;;;;;5035018;28;20072;-77
2022/08/08 11:51:21;;;;;;;6.43;5.85;;;16.90;99.90;;;;;;5035401;28;20566;-76
2022/08/08 11:53:48;;;;;;;5.40;4.90;;;17.10;99.90;;;;;;5035561;28;20061;-76
2022/08/08 11:56:23;;;;;;;5.10;3.95;;;17.20;99.90;;;;;;5017881;28;20036;-62
2022/08/08 11:58:50;;;;;;;7.57;4.55;;;17.30;99.90;;;;;;5035484;28;20070;-63
2022/08/08 12:01:16;;;;;;;7.03;4.75;;;17.40;99.90;;;;;;5035235;28;20025;-63
2022/08/08 12:03:45;;;;;;;5.55;3.88;;;17.60;99.90;;;;;;5035058;28;20390;-63
2022/08/08 12:06:15;;;;;;;5.93;4.60;;;17.60;99.90;;;;;;5034954;28;20490;-63
2022/08/08 12:08:41;;;;;;;7.97;4.40;;;17.70;99.90;;;;;;5035324;28;20037;-64
2022/08/08 12:11:15;;;;;;;5.28;4.50;;;17.80;99.90;;;;;;5035395;28;20060;-62
2022/08/08 12:13:41;;;;;;;5.20;3.80;;;17.80;99.90;;;;;;5035058;28;20032;-62
2022/08/08 12:16:10;;;;;;;4.25;3.60;;;17.80;99.90;;;;;;5035223;28;20055;-62
2022/08/08 12:19:10;;;;;;;4.10;3.03;;;17.70;99.90;;;;;;5035139;28;20061;-62
2022/08/08 12:21:35;;;;;;;6.53;3.95;;;17.70;99.90;;;;;;5006648;28;20099;-63
2022/08/08 12:24:12;;;;;;;3.85;3.55;;;17.70;99.90;;;;;;5017783;28;20021;-63
2022/08/08 12:26:46;;;;;;;4.00;3.60;;;17.80;99.90;;;;;;5035193;28;20025;-77
2022/08/08 12:29:32;;;;;;;3.63;3.22;;;17.90;99.90;;;;;;5034858;28;20032;-75
2022/08/08 12:32:07;;;;;;;4.90;3.60;;;18.00;99.90;;;;;;5017189;28;20036;-77
2022/08/08 12:34:37;;;;;;;5.82;3.50;;;18.20;99.90;;;;;;5034953;28;20106;-76
2022/08/08 12:37:05;;;;;;;6.93;2.60;;;18.20;99.90;;;;;;5034675;28;20116;-76
2022/08/08 12:39:31;;;;;;;5.15;3.35;;;18.30;99.90;;;;;;5016382;28;20057;-75
2022/08/08 12:41:58;;;;;;;7.38;4.03;;;18.30;99.90;;;;;;5034742;28;20025;-76
2022/08/08 12:44:28;;;;;;;4.95;3.08;;;18.30;99.90;;;;;;5034649;28;20029;-76
2022/08/08 12:46:58;;;;;;;4.25;3.72;;;18.40;99.90;;;;;;5016428;28;20053;-75
2022/08/08 12:49:29;;;;;;;5.32;3.40;;;18.50;99.90;;;;;;5034441;28;20048;-75
2022/08/08 12:51:55;;;;;;;4.63;3.58;;;18.60;99.90;;;;;;5016495;28;20065;-75
2022/08/08 12:54:43;;;;;;;7.82;3.20;;;18.70;99.90;;;;;;5016790;28;20467;-75
2022/08/08 12:57:28;;;;;;;4.65;3.30;;;18.80;99.90;;;;;;5033891;28;20094;-75
2022/08/08 12:59:54;;;;;;;5.03;3.53;;;18.70;99.90;;;;;;5033622;28;20540;-76
2022/08/08 13:02:24;;;;;;;6.40;3.15;;;18.70;99.90;;;;;;5033958;28;20029;-76
2022/08/08 13:04:51;;;;;;;4.55;3.40;;;18.70;99.90;;;;;;5016648;28;20037;-75
2022/08/08 13:07:17;;;;;;;4.20;2.97;;;18.70;99.90;;;;;;5034299;28;20033;-75
2022/08/08 13:09:46;;;;;;;4.43;3.42;;;18.70;99.90;;;;;;5033935;28;20025;-75
2022/08/08 13:12:14;;;;;;;5.03;3.30;;;18.70;99.90;;;;;;5016518;28;20025;-76
2022/08/08 13:14:46;;;;;;;3.10;2.90;;;18.90;99.90;;;;;;5016518;28;20124;-76
2022/08/08 13:17:12;;;;;;;4.40;2.70;;;19.00;99.90;;;;;;5034241;28;20037;-76
2022/08/08 13:19:38;;;;;;;2.50;2.25;;;19.10;99.90;;;;;;5016242;28;20378;-75
2022/08/08 13:22:05;;;;;;;3.08;2.38;;;19.10;99.90;;;;;;5016277;28;20025;-76
2022/08/08 13:24:34;;;;;;;3.45;2.65;;;19.20;99.90;;;;;;5016219;28;20029;-75
2022/08/08 13:27:08;;;;;;;3.53;2.40;;;19.20;99.90;;;;;;5033897;28;20061;-75
2022/08/08 13:29:46;;;;;;;2.88;2.28;;;19.10;99.90;;;;;;5034005;28;20417;-75
2022/08/08 13:32:12;;;;;;;3.72;2.30;;;19.20;99.90;;;;;;5016744;28;20463;-75
2022/08/08 13:34:38;;;;;;;4.25;2.70;;;19.20;99.90;;;;;;5033524;28;20047;-75